Time;durP1;ratioP1;P1;durP2;ratioP2;P2;SDS_P1;SDS_P2;PMS_P1;PMS_P2;Temp;Humidity;BMP_temperature;BMP_pressure;BME280_temperature;BME280_humidity;BME280_pressure;Samples;Min_cycle;Max_cycle;Signal;HPM_P1;HPM_P2
2022/11/30 00:00:50;;;;;;;;;23.00;20.25;;;;;21.10;58.16;101376.72;4981490;28;46114;-64
2022/11/30 00:03:15;;;;;;;;;22.25;20.00;;;;;21.09;57.79;101372.34;5016042;28;46622;-63
2022/11/30 00:05:40;;;;;;;;;17.75;17.50;;;;;21.10;57.81;101373.19;5017892;28;58958;-65
2022/11/30 00:08:06;;;;;;;;;27.75;21.50;;;;;21.10;57.52;101374.06;5019328;28;59628;-65
2022/11/30 00:10:31;;;;;;;;;29.00;19.75;;;;;21.10;58.04;101370.53;5016916;28;62023;-66
2022/11/30 00:12:56;;;;;;;;;26.00;22.75;;;;;21.10;58.27;101370.53;5019768;28;50186;-64
2022/11/30 00:15:22;;;;;;;;;26.50;22.25;;;;;21.09;58.00;101369.69;5017655;28;61851;-63
2022/11/30 00:17:47;;;;;;;;;17.50;16.25;;;;;21.09;57.96;101360.84;5019730;28;51015;-64
2022/11/30 00:20:13;;;;;;;;;24.25;19.75;;;;;21.08;58.05;101364.41;5016870;28;45295;-64
2022/11/30 00:22:39;;;;;;;;;24.00;18.50;;;;;21.07;58.23;101354.72;5019681;28;45367;-63
2022/11/30 00:25:04;;;;;;;;;26.75;21.75;;;;;21.05;57.71;101360.06;5000470;28;45829;-63
2022/11/30 00:27:30;;;;;;;;;28.50;22.00;;;;;21.06;58.06;101358.28;5018687;28;45375;-64
2022/11/30 00:29:56;;;;;;;;;18.50;18.25;;;;;21.05;58.37;101360.06;5016571;28;45327;-64
2022/11/30 00:32:22;;;;;;;;;27.25;20.25;;;;;21.05;58.27;101357.41;4985191;28;45360;-65
2022/11/30 00:34:47;;;;;;;;;26.00;23.75;;;;;21.06;57.93;101355.63;5017904;28;45358;-65
2022/11/30 00:37:13;;;;;;;;;20.50;18.50;;;;;21.04;58.27;101358.31;5018298;28;45960;-65
2022/11/30 00:39:39;;;;;;;;;23.75;20.25;;;;;21.04;58.11;101352.13;4985705;28;45396;-66
2022/11/30 00:42:04;;;;;;;;;21.00;18.00;;;;;21.04;57.92;101360.09;5017450;28;60988;-66
2022/11/30 00:44:29;;;;;;;;;23.50;18.25;;;;;21.02;58.02;101352.16;5019224;28;45351;-65
2022/11/30 00:46:55;;;;;;;;;22.25;20.00;;;;;21.02;58.08;101348.63;5016193;28;58266;-65
2022/11/30 00:49:20;;;;;;;;;26.50;18.75;;;;;21.02;57.44;101352.16;5018511;28;64307;-66
2022/11/30 00:51:46;;;;;;;;;26.00;18.50;;;;;21.02;57.89;101353.94;5017320;28;52951;-65
2022/11/30 00:54:11;;;;;;;;;20.75;18.75;;;;;21.01;57.74;101338.91;4985966;28;45572;-66
2022/11/30 00:56:36;;;;;;;;;20.75;17.50;;;;;21.00;57.61;101345.16;5016787;28;63679;-64
2022/11/30 00:59:02;;;;;;;;;26.00;20.00;;;;;21.00;57.45;101346.00;5017431;28;64193;-65
2022/11/30 01:01:28;;;;;;;;;22.75;17.50;;;;;21.00;57.39;101337.19;5017315;28;54674;-64
2022/11/30 01:03:53;;;;;;;;;22.25;18.25;;;;;21.00;57.81;101350.44;5019305;28;45572;-64
2022/11/30 01:06:18;;;;;;;;;23.75;19.50;;;;;20.99;57.87;101348.72;5017378;28;45451;-65
2022/11/30 01:08:44;;;;;;;;;17.75;17.25;;;;;20.99;57.82;101346.06;5018786;28;52419;-64
2022/11/30 01:11:35;;;;;;;;;20.25;18.00;;;;;21.00;58.11;101350.44;5017718;28;45286;-64
2022/11/30 01:14:01;;;;;;;;;23.75;20.75;;;;;20.99;58.07;101346.94;5017910;28;52233;-64
2022/11/30 01:16:31;;;;;;;;;25.00;21.50;;;;;21.00;58.07;101353.09;5017242;28;45303;-64
2022/11/30 01:18:56;;;;;;;;;19.00;19.00;;;;;21.00;57.97;101355.75;5017528;28;45291;-64
2022/11/30 01:21:23;;;;;;;;;24.00;18.50;;;;;20.98;57.76;101346.97;5016141;28;45514;-64
2022/11/30 01:23:49;;;;;;;;;25.00;17.25;;;;;21.00;58.10;101345.16;5017442;28;45398;-65
2022/11/30 01:26:15;;;;;;;;;21.75;17.75;;;;;21.00;57.99;101340.72;5017158;28;46381;-64
2022/11/30 01:28:40;;;;;;;;;20.25;17.50;;;;;20.99;57.90;101346.94;5004302;28;45361;-65
2022/11/30 01:31:07;;;;;;;;;22.00;20.75;;;;;21.00;57.49;101342.50;5020894;28;45498;-64
2022/11/30 01:33:33;;;;;;;;;23.75;18.50;;;;;20.99;57.82;101341.63;5020894;28;45229;-64
2022/11/30 01:36:15;;;;;;;;;21.25;20.00;;;;;20.98;57.37;101345.19;4985891;28;46982;-65
2022/11/30 01:38:48;;;;;;;;;21.00;18.00;;;;;20.97;57.92;101343.44;5021958;28;45262;-65
2022/11/30 01:41:18;;;;;;;;;21.00;19.75;;;;;20.98;57.46;101346.97;5003559;28;45491;-65
2022/11/30 01:43:46;;;;;;;;;26.50;21.75;;;;;20.97;57.68;101346.09;5022258;28;45564;-65
2022/11/30 01:46:59;;;;;;;;;20.50;19.50;;;;;20.96;57.34;101346.16;5019449;28;45495;-64
2022/11/30 01:49:29;;;;;;;;;25.50;18.25;;;;;20.94;57.70;101351.50;5039380;28;45469;-64
2022/11/30 01:52:01;;;;;;;;;19.75;16.75;;;;;20.94;57.78;101356.81;5022125;28;45260;-64
2022/11/30 01:54:30;;;;;;;;;23.00;18.00;;;;;20.94;57.44;101355.91;5020020;28;45358;-64
2022/11/30 01:56:56;;;;;;;;;22.25;19.00;;;;;20.93;57.41;101352.38;5018840;28;49857;-65
2022/11/30 01:59:22;;;;;;;;;23.75;19.50;;;;;20.93;57.59;101351.50;5020900;28;45209;-64
2022/11/30 02:01:48;;;;;;;;;24.50;20.75;;;;;20.92;57.85;101355.06;5018176;28;45280;-65
2022/11/30 02:04:18;;;;;;;;;22.50;17.75;;;;;20.92;57.86;101352.41;5019891;28;73234;-64
2022/11/30 02:06:44;;;;;;;;;16.00;14.25;;;;;20.92;57.34;101355.94;5002940;28;46739;-64
2022/11/30 02:09:10;;;;;;;;;25.50;19.50;;;;;20.91;57.46;101351.53;5020640;28;45536;-65
2022/11/30 02:11:35;;;;;;;;;18.00;16.75;;;;;20.91;57.54;101350.69;5001762;28;62158;-65
2022/11/30 02:14:16;;;;;;;;;16.50;14.50;;;;;20.91;57.37;101354.19;5021305;28;65141;-65
2022/11/30 02:17:19;;;;;;;;;22.25;19.25;;;;;20.91;57.35;101355.97;5018719;28;47853;-64
2022/11/30 02:20:05;;;;;;;;;21.25;17.25;;;;;20.90;57.60;101355.09;5021200;28;45295;-64
2022/11/30 02:22:49;;;;;;;;;24.00;20.25;;;;;20.89;57.52;101348.06;5021415;28;45418;-64
2022/11/30 02:25:25;;;;;;;;;22.50;19.25;;;;;20.91;57.60;101350.69;5019983;28;45920;-64
2022/11/30 02:27:59;;;;;;;;;18.75;17.50;;;;;20.90;57.53;101352.47;5021281;28;47030;-64
2022/11/30 02:30:24;;;;;;;;;19.75;18.50;;;;;20.89;57.46;101353.38;5019655;28;45505;-64
2022/11/30 02:32:55;;;;;;;;;17.25;13.00;;;;;20.90;57.73;101355.09;5019806;28;63910;-64
2022/11/30 02:35:22;;;;;;;;;22.50;20.50;;;;;20.90;57.66;101352.47;5018507;28;45466;-64
2022/11/30 02:37:48;;;;;;;;;22.00;18.00;;;;;20.91;57.77;101350.69;5003048;28;49634;-64
2022/11/30 02:40:14;;;;;;;;;16.75;16.75;;;;;20.90;57.61;101355.09;5018036;28;58699;-64
2022/11/30 02:42:40;;;;;;;;;21.75;18.50;;;;;20.89;57.62;101354.25;5021174;28;45405;-64
2022/11/30 02:45:06;;;;;;;;;22.25;17.25;;;;;20.89;57.54;101351.59;5018843;28;66779;-65
2022/11/30 02:47:47;;;;;;;;;22.75;17.50;;;;;20.89;57.48;101348.94;5019636;28;46814;-65
2022/11/30 02:50:20;;;;;;;;;16.50;15.50;;;;;20.89;57.20;101353.38;5001521;28;45455;-64
2022/11/30 02:52:46;;;;;;;;;20.25;18.25;;;;;20.88;57.08;101348.97;5003458;28;45677;-65
2022/11/30 02:55:14;;;;;;;;;15.50;15.50;;;;;20.87;57.39;101353.41;5018390;28;45388;-65
2022/11/30 02:57:39;;;;;;;;;15.50;14.00;;;;;20.87;57.13;101345.44;5019229;28;45571;-64
2022/11/30 03:00:07;;;;;;;;;16.00;15.50;;;;;20.87;57.39;101350.75;5019182;28;48735;-64
2022/11/30 03:02:33;;;;;;;;;16.00;16.00;;;;;20.86;57.31;101348.16;5002920;28;45592;-65
2022/11/30 03:04:58;;;;;;;;;17.50;14.00;;;;;20.85;57.05;101352.59;5017588;28;46519;-65
2022/11/30 03:07:23;;;;;;;;;18.75;16.00;;;;;20.86;57.09;101356.09;5020887;28;45490;-64
2022/11/30 03:09:49;;;;;;;;;17.00;15.50;;;;;20.87;57.70;101355.19;5019666;28;62142;-64
2022/11/30 03:12:14;;;;;;;;;22.75;15.25;;;;;20.86;57.47;101354.31;5019697;28;57237;-64
2022/11/30 03:14:40;;;;;;;;;20.25;17.00;;;;;20.84;57.20;101358.75;5019587;28;66384;-64
2022/11/30 03:17:05;;;;;;;;;18.25;17.00;;;;;20.86;57.35;101354.31;5018384;28;61228;-64
2022/11/30 03:19:31;;;;;;;;;20.75;16.00;;;;;20.86;57.10;101354.31;5015959;28;45347;-64
2022/11/30 03:21:57;;;;;;;;;17.25;15.75;;;;;20.86;57.42;101358.75;5018311;28;45320;-64
2022/11/30 03:24:22;;;;;;;;;23.00;17.75;;;;;20.86;57.47;101364.06;5020975;28;45154;-64
2022/11/30 03:26:47;;;;;;;;;18.75;14.75;;;;;20.86;57.53;101366.72;5017614;28;45892;-66
2022/11/30 03:29:13;;;;;;;;;18.00;15.50;;;;;20.86;57.58;101364.94;5021843;28;45360;-65
2022/11/30 03:31:38;;;;;;;;;13.00;13.00;;;;;20.87;57.34;101366.69;5018056;28;45433;-65
2022/11/30 03:34:04;;;;;;;;;12.75;11.25;;;;;20.87;57.13;101369.34;5020102;28;47384;-65
2022/11/30 03:36:29;;;;;;;;;16.00;14.25;;;;;20.86;56.87;101364.94;5018519;28;46133;-65
2022/11/30 03:38:54;;;;;;;;;16.00;12.25;;;;;20.86;57.05;101366.72;5019901;28;45239;-65
2022/11/30 03:41:20;;;;;;;;;18.25;15.00;;;;;20.85;57.38;101373.81;5019532;28;55307;-65
2022/11/30 03:43:45;;;;;;;;;15.50;15.25;;;;;20.84;57.44;101366.72;5019276;28;68647;-65
2022/11/30 03:46:11;;;;;;;;;17.50;15.00;;;;;20.84;57.12;101377.34;5017544;28;55654;-65
2022/11/30 03:48:36;;;;;;;;;16.25;13.25;;;;;20.85;57.23;101375.59;5018583;28;55904;-64
2022/11/30 03:51:03;;;;;;;;;15.50;13.25;;;;;20.84;57.34;101379.13;5018143;28;45594;-64
2022/11/30 03:53:28;;;;;;;;;13.50;13.50;;;;;20.85;57.11;101391.50;5020878;28;45428;-64
2022/11/30 03:55:55;;;;;;;;;14.00;12.00;;;;;20.85;57.09;101389.72;5018422;28;45377;-64
2022/11/30 03:58:22;;;;;;;;;14.75;13.50;;;;;20.85;57.04;101389.72;5018721;28;45408;-64
2022/11/30 04:00:47;;;;;;;;;12.75;11.25;;;;;20.86;56.78;101395.91;5016676;28;45272;-65
2022/11/30 04:03:12;;;;;;;;;14.50;13.25;;;;;20.83;56.92;101388.88;5018973;28;45212;-64
2022/11/30 04:05:38;;;;;;;;;17.00;13.25;;;;;20.83;56.46;101393.31;5016512;28;66834;-65
2022/11/30 04:08:03;;;;;;;;;16.25;15.00;;;;;20.84;56.63;101400.34;5002142;28;45281;-65
2022/11/30 04:10:28;;;;;;;;;17.00;14.75;;;;;20.81;56.88;101389.81;5017417;28;66570;-65
2022/11/30 04:12:54;;;;;;;;;10.75;9.75;;;;;20.81;56.63;101403.94;5018168;28;55654;-64
2022/11/30 04:15:19;;;;;;;;;13.00;12.00;;;;;20.82;56.42;101399.50;5017778;28;69069;-64
2022/11/30 04:17:45;;;;;;;;;13.75;11.25;;;;;20.81;56.60;101406.59;5019865;28;45209;-65
2022/11/30 04:20:10;;;;;;;;;13.50;13.50;;;;;20.82;56.48;101410.13;5017986;28;46886;-65
2022/11/30 04:22:36;;;;;;;;;15.50;13.50;;;;;20.82;56.74;101405.69;5017899;28;45633;-64
2022/11/30 04:25:01;;;;;;;;;16.50;12.75;;;;;20.82;56.46;101413.66;5018034;28;49304;-65
2022/11/30 04:27:29;;;;;;;;;15.00;12.50;;;;;20.82;56.69;101412.78;5017668;28;67130;-65
2022/11/30 04:29:55;;;;;;;;;9.50;9.25;;;;;20.82;56.58;101416.31;5018577;28;45335;-64
2022/11/30 04:32:20;;;;;;;;;13.50;11.25;;;;;20.84;56.49;101421.56;5017854;28;54074;-64
2022/11/30 04:34:45;;;;;;;;;14.25;12.00;;;;;20.82;56.79;101418.09;5018369;28;71484;-65
2022/11/30 04:37:11;;;;;;;;;16.00;13.25;;;;;20.81;56.82;101414.56;5015794;28;70588;-65
2022/11/30 04:39:36;;;;;;;;;11.50;11.50;;;;;20.81;56.75;101419.88;5019078;28;66812;-65
2022/11/30 04:42:01;;;;;;;;;12.50;11.50;;;;;20.81;57.21;101422.53;5016857;28;56441;-63
2022/11/30 04:44:27;;;;;;;;;19.50;13.50;;;;;20.81;56.44;101419.88;5017824;28;47084;-63
2022/11/30 04:46:52;;;;;;;;;14.75;10.75;;;;;20.80;56.76;101422.56;5017362;28;59775;-64
2022/11/30 04:49:18;;;;;;;;;14.25;12.00;;;;;20.80;57.04;101428.75;5017479;28;53320;-64
2022/11/30 04:51:43;;;;;;;;;14.50;13.50;;;;;20.80;56.87;101425.22;5017846;28;45204;-65
2022/11/30 04:54:08;;;;;;;;;11.00;9.75;;;;;20.82;57.20;101431.34;5017840;28;57435;-64
2022/11/30 04:56:34;;;;;;;;;10.75;9.00;;;;;20.81;57.12;101427.84;5015457;28;63399;-64
2022/11/30 04:59:03;;;;;;;;;11.25;9.50;;;;;20.82;57.09;101436.66;5019211;28;53054;-64
2022/11/30 05:01:29;;;;;;;;;13.25;11.50;;;;;20.81;57.23;101433.13;5016445;28;45989;-64
2022/11/30 05:03:56;;;;;;;;;13.75;9.75;;;;;20.81;57.16;101430.47;5021804;28;45343;-64
2022/11/30 05:06:21;;;;;;;;;12.00;10.25;;;;;20.80;57.27;101431.41;5021019;28;45377;-64
2022/11/30 05:08:47;;;;;;;;;13.25;9.50;;;;;20.81;57.20;101432.25;5020756;28;61818;-64
2022/11/30 05:11:12;;;;;;;;;12.50;12.50;;;;;20.81;57.02;101425.19;5020576;28;61182;-64
2022/11/30 05:13:37;;;;;;;;;9.50;9.50;;;;;20.81;57.08;101424.31;5022710;28;45305;-64
2022/11/30 05:16:03;;;;;;;;;10.00;8.25;;;;;20.82;57.30;101424.25;5019703;28;49469;-64
2022/11/30 05:18:30;;;;;;;;;10.50;9.75;;;;;20.83;56.73;101422.47;5022889;28;45228;-64
2022/11/30 05:20:55;;;;;;;;;13.50;9.50;;;;;20.83;57.14;101418.06;5020893;28;45208;-64
2022/11/30 05:23:21;;;;;;;;;9.25;7.50;;;;;20.84;57.02;101425.09;5019554;28;72690;-64
2022/11/30 05:25:46;;;;;;;;;11.75;9.75;;;;;20.86;56.82;101414.47;5003028;28;45620;-63
2022/11/30 05:28:12;;;;;;;;;10.75;9.00;;;;;20.86;56.82;101417.13;5020716;28;63454;-64
2022/11/30 05:30:38;;;;;;;;;10.00;8.00;;;;;20.87;56.87;101419.75;4985838;28;66027;-63
2022/11/30 05:33:04;;;;;;;;;11.25;9.00;;;;;20.88;57.02;101426.78;5021031;28;46471;-64
2022/11/30 05:35:29;;;;;;;;;7.25;7.25;;;;;20.88;56.92;101421.47;5019209;28;45379;-63
2022/11/30 05:37:54;;;;;;;;;7.00;6.75;;;;;20.89;56.92;101425.00;5022046;28;59511;-63
2022/11/30 05:40:20;;;;;;;;;9.50;7.50;;;;;20.89;56.97;101425.88;5019989;28;60203;-63
2022/11/30 05:42:45;;;;;;;;;11.25;8.50;;;;;20.88;56.43;101418.84;5022110;28;46105;-64
2022/11/30 05:45:11;;;;;;;;;8.50;8.00;;;;;20.91;56.51;101424.97;5019828;28;45530;-63
2022/11/30 05:47:36;;;;;;;;;13.50;9.25;;;;;20.91;56.90;101424.97;5020414;28;60709;-64
2022/11/30 05:50:02;;;;;;;;;8.75;8.75;;;;;20.92;56.53;101432.03;5018929;28;45285;-64
2022/11/30 05:52:27;;;;;;;;;9.75;7.50;;;;;20.92;56.76;101426.72;4987642;28;47115;-63
2022/11/30 05:54:52;;;;;;;;;7.75;7.00;;;;;20.93;56.74;101423.16;5019827;28;45741;-63
2022/11/30 05:57:18;;;;;;;;;6.50;6.50;;;;;20.93;56.47;101417.84;5019861;28;58846;-64
2022/11/30 05:59:43;;;;;;;;;8.00;8.00;;;;;20.94;56.45;101425.78;5020698;28;45469;-63
2022/11/30 06:02:08;;;;;;;;;10.00;7.75;;;;;20.94;56.27;101420.47;5019204;28;49811;-64
2022/11/30 06:04:34;;;;;;;;;8.75;6.00;;;;;20.95;56.37;101424.88;5019215;28;45798;-64
2022/11/30 06:07:00;;;;;;;;;10.50;6.75;;;;;20.96;56.69;101423.09;5019689;28;45222;-63
2022/11/30 06:09:26;;;;;;;;;11.50;7.25;;;;;20.96;56.27;101420.44;5020035;28;65011;-63
2022/11/30 06:11:51;;;;;;;;;6.50;6.00;;;;;20.96;56.14;101423.97;5018150;28;68199;-64
2022/11/30 06:14:16;;;;;;;;;7.75;6.00;;;;;20.97;56.56;101427.50;5019886;28;45294;-64
2022/11/30 06:16:42;;;;;;;;;7.50;5.75;;;;;20.96;56.20;101417.78;5017847;28;56794;-63
2022/11/30 06:19:07;;;;;;;;;10.00;8.75;;;;;20.97;56.42;101417.75;5020662;28;67898;-64
2022/11/30 06:21:33;;;;;;;;;7.25;6.50;;;;;20.98;56.09;101415.97;5019980;28;46323;-63
2022/11/30 06:23:58;;;;;;;;;9.00;8.25;;;;;20.97;56.12;101416.88;5020205;28;45378;-63
2022/11/30 06:26:23;;;;;;;;;5.00;5.00;;;;;20.98;56.31;101418.63;5018157;28;45825;-63
2022/11/30 06:28:49;;;;;;;;;7.00;7.00;;;;;20.99;56.00;101425.66;5020639;28;67873;-63
2022/11/30 06:31:25;;;;;;;;;9.25;7.00;;;;;20.99;55.96;101420.38;5020037;28;45673;-66
2022/11/30 06:33:51;;;;;;;;;9.75;8.75;;;;;20.99;56.19;101418.59;5004312;28;45372;-63
2022/11/30 06:36:21;;;;;;;;;9.50;7.25;;;;;20.99;56.18;101429.19;5018045;28;47170;-66
2022/11/30 06:38:46;;;;;;;;;10.00;8.00;;;;;21.00;56.26;101420.31;5003823;28;45327;-65
2022/11/30 06:41:12;;;;;;;;;8.50;7.00;;;;;21.01;56.18;101418.53;5018586;28;71924;-64
2022/11/30 06:43:38;;;;;;;;;8.50;7.50;;;;;21.02;56.02;101422.94;5023016;28;45497;-64
2022/11/30 06:46:04;;;;;;;;;9.25;8.00;;;;;21.02;56.36;101425.59;5017897;28;45383;-64
2022/11/30 06:48:29;;;;;;;;;9.25;7.00;;;;;21.03;56.49;101430.03;5020229;28;45337;-64
2022/11/30 06:50:54;;;;;;;;;9.25;7.25;;;;;21.03;56.14;101436.19;5018869;28;46298;-65
2022/11/30 06:53:20;;;;;;;;;10.00;8.25;;;;;21.03;56.03;101430.03;5002608;28;69336;-65
2022/11/30 06:55:45;;;;;;;;;8.25;6.25;;;;;21.04;56.33;101431.75;5019428;28;48748;-66
2022/11/30 06:58:11;;;;;;;;;8.00;6.00;;;;;21.03;56.22;101430.88;5019701;28;45566;-66
2022/11/30 07:00:36;;;;;;;;;8.00;6.50;;;;;21.04;56.81;101431.75;5018846;28;46204;-66
2022/11/30 07:03:02;;;;;;;;;5.75;5.75;;;;;21.04;56.30;101424.66;5019356;28;45470;-65
2022/11/30 07:05:27;;;;;;;;;9.50;7.25;;;;;21.04;56.21;101443.25;5018801;28;48557;-65
2022/11/30 07:07:53;;;;;;;;;6.50;6.50;;;;;21.04;56.16;101435.28;5019001;28;45500;-65
2022/11/30 07:10:18;;;;;;;;;7.75;5.75;;;;;21.04;55.98;101442.38;5018715;28;56336;-65
2022/11/30 07:12:44;;;;;;;;;6.00;5.75;;;;;21.02;55.82;101442.38;5020677;28;45150;-65
2022/11/30 07:15:10;;;;;;;;;10.00;7.75;;;;;21.02;56.06;101450.34;5019045;28;45683;-64
2022/11/30 07:17:35;;;;;;;;;9.00;7.00;;;;;21.02;55.98;101449.47;5019641;28;45494;-65
2022/11/30 07:20:00;;;;;;;;;8.50;7.25;;;;;21.01;55.78;101443.28;5017452;28;47917;-65
2022/11/30 07:22:26;;;;;;;;;6.00;6.00;;;;;21.00;55.91;101448.66;5020089;28;54974;-65
2022/11/30 07:27:35;;;;;;;;;9.75;7.00;;;;;20.97;55.77;101438.97;5019732;28;45289;-64
2022/11/30 07:30:00;;;;;;;;;8.50;7.75;;;;;20.97;55.85;101444.28;5016420;28;69734;-64
2022/11/30 07:32:26;;;;;;;;;7.00;5.75;;;;;20.97;55.70;101448.72;4985943;28;59885;-64
2022/11/30 07:34:51;;;;;;;;;10.50;8.25;;;;;20.97;55.94;101456.69;5019389;28;45660;-65
2022/11/30 07:37:17;;;;;;;;;6.50;3.75;;;;;20.97;55.66;101456.69;5015354;28;69643;-66
2022/11/30 07:39:42;;;;;;;;;9.00;7.00;;;;;20.98;55.23;101469.03;5019493;28;47985;-65
2022/11/30 07:42:07;;;;;;;;;10.25;8.25;;;;;20.97;55.36;101462.88;5016921;28;48892;-66
2022/11/30 07:44:33;;;;;;;;;7.75;7.75;;;;;20.96;56.11;101466.44;5018371;28;61751;-64
2022/11/30 07:46:59;;;;;;;;;5.75;5.75;;;;;20.98;55.48;101466.38;5019323;28;45503;-64
2022/11/30 07:49:25;;;;;;;;;7.25;6.50;;;;;20.95;55.61;101467.34;5001305;28;45544;-65
2022/11/30 07:51:50;;;;;;;;;10.75;7.25;;;;;20.96;55.57;101470.88;5017546;28;70188;-64
2022/11/30 07:54:15;;;;;;;;;7.50;5.75;;;;;20.96;55.95;101471.75;5018937;28;46914;-65
2022/11/30 07:56:41;;;;;;;;;8.25;8.00;;;;;20.96;55.45;101469.09;5016022;28;47700;-64
2022/11/30 07:59:06;;;;;;;;;15.75;11.00;;;;;20.98;55.89;101479.66;5001313;28;47018;-64
2022/11/30 08:01:32;;;;;;;;;9.75;7.75;;;;;20.98;55.83;101479.66;5017689;28;45532;-63
2022/11/30 08:03:58;;;;;;;;;8.50;6.75;;;;;20.98;55.66;101479.66;5017853;28;45524;-63
2022/11/30 08:06:25;;;;;;;;;8.25;6.25;;;;;20.98;56.26;101484.97;5000376;28;45448;-64
2022/11/30 08:08:52;;;;;;;;;9.75;7.50;;;;;21.00;56.03;101483.16;5002107;28;45297;-64
2022/11/30 08:11:19;;;;;;;;;10.00;6.50;;;;;21.01;56.10;101492.84;5016631;28;45400;-64
2022/11/30 08:13:44;;;;;;;;;9.00;8.50;;;;;21.00;55.90;101491.97;5018471;28;45829;-65
2022/11/30 08:16:14;;;;;;;;;8.00;6.50;;;;;21.01;56.17;101485.75;5016742;28;45462;-64
2022/11/30 08:18:40;;;;;;;;;9.75;7.50;;;;;21.01;56.43;101485.75;5019276;28;45276;-64
2022/11/30 08:21:06;;;;;;;;;8.25;7.25;;;;;21.03;56.22;101497.25;5018711;28;45272;-65
2022/11/30 08:23:34;;;;;;;;;9.00;7.75;;;;;21.03;56.01;101488.41;5019909;28;45278;-64
2022/11/30 08:26:05;;;;;;;;;5.75;5.25;;;;;21.04;56.04;101491.03;5020007;28;45291;-65
2022/11/30 08:28:30;;;;;;;;;9.00;7.00;;;;;21.04;56.57;101495.47;5002199;28;45280;-65
2022/11/30 08:31:00;;;;;;;;;7.25;6.00;;;;;21.05;56.05;101489.25;5018144;28;45289;-65
2022/11/30 08:33:25;;;;;;;;;13.50;9.50;;;;;21.05;56.12;101495.41;5019872;28;45429;-64
2022/11/30 08:35:51;;;;;;;;;11.25;9.00;;;;;21.05;56.42;101500.72;5017044;28;65428;-64
2022/11/30 08:38:16;;;;;;;;;10.00;8.75;;;;;21.06;56.19;101494.50;5019336;28;45387;-66
2022/11/30 08:40:42;;;;;;;;;8.50;7.50;;;;;21.06;56.14;101498.94;5016744;28;60991;-65
2022/11/30 08:43:07;;;;;;;;;8.00;6.00;;;;;21.05;56.42;101508.69;5018121;28;45319;-65
2022/11/30 08:45:33;;;;;;;;;10.00;9.00;;;;;21.07;55.93;101503.34;5019574;28;45429;-65
2022/11/30 08:47:58;;;;;;;;;12.00;9.25;;;;;21.06;56.42;101501.59;5017689;28;46976;-65
2022/11/30 08:50:24;;;;;;;;;9.00;8.75;;;;;21.07;56.31;101500.69;5018895;28;45855;-65
2022/11/30 08:52:51;;;;;;;;;10.75;9.25;;;;;21.06;56.35;101499.81;5001621;28;45327;-66
2022/11/30 08:55:17;;;;;;;;;13.25;9.00;;;;;21.07;56.52;101498.91;5017934;28;45468;-64
2022/11/30 08:57:42;;;;;;;;;10.50;8.00;;;;;21.07;56.35;101498.03;5017944;28;58367;-67
2022/11/30 09:00:08;;;;;;;;;9.00;5.75;;;;;21.06;56.41;101501.59;5017917;28;48405;-63
2022/11/30 09:02:34;;;;;;;;;9.25;8.75;;;;;21.08;56.85;101491.81;5017973;28;45259;-64
2022/11/30 09:04:59;;;;;;;;;7.00;7.00;;;;;21.09;56.40;101504.19;5001338;28;45312;-63
2022/11/30 09:07:25;;;;;;;;;14.00;10.50;;;;;21.08;55.88;101499.78;5018801;28;60970;-64
2022/11/30 09:09:50;;;;;;;;;10.00;10.00;;;;;21.06;56.04;101502.47;5018566;28;45498;-64
2022/11/30 09:12:16;;;;;;;;;11.25;8.25;;;;;21.07;56.01;101506.88;5019154;28;45477;-65
2022/11/30 09:14:41;;;;;;;;;13.75;13.25;;;;;21.07;52.85;101509.53;5018933;28;53264;-62
2022/11/30 09:17:07;;;;;;;;;13.00;10.25;;;;;20.92;53.68;101509.84;5018919;28;51985;-64
2022/11/30 09:19:32;;;;;;;;;13.25;12.25;;;;;20.89;55.10;101513.44;5001174;28;45291;-67
2022/11/30 09:21:58;;;;;;;;;11.50;9.25;;;;;20.91;55.21;101507.22;5017535;28;45280;-66
2022/11/30 09:24:23;;;;;;;;;13.75;9.50;;;;;20.94;55.52;101515.13;5001351;28;45234;-64
2022/11/30 09:26:48;;;;;;;;;10.25;7.75;;;;;20.95;55.40;101519.53;5017757;28;47177;-65
2022/11/30 09:29:14;;;;;;;;;10.25;7.75;;;;;20.97;55.49;101518.59;5001201;28;45697;-65
2022/11/30 09:31:39;;;;;;;;;12.75;9.50;;;;;20.99;55.30;101518.56;5016721;28;63437;-65
2022/11/30 09:34:04;;;;;;;;;9.50;8.75;;;;;21.00;55.32;101521.16;5016851;28;45525;-64
2022/11/30 09:36:31;;;;;;;;;14.50;12.25;;;;;21.03;55.43;101530.88;5017022;28;66659;-64
2022/11/30 09:38:57;;;;;;;;;14.00;12.50;;;;;21.04;55.42;101527.31;5018069;28;45320;-67
2022/11/30 09:41:41;;;;;;;;;12.25;9.75;;;;;21.04;55.44;101529.97;5019050;28;45566;-64
2022/11/30 09:44:34;;;;;;;;;18.50;14.25;;;;;21.03;55.78;101526.44;5020958;28;45221;-63
2022/11/30 09:47:36;;;;;;;;;15.00;13.25;;;;;21.04;55.32;101519.34;5017134;28;45367;-63
2022/11/30 09:50:13;;;;;;;;;13.50;10.25;;;;;21.04;55.48;101524.66;5020285;28;45695;-64
2022/11/30 09:52:41;;;;;;;;;14.25;12.75;;;;;21.05;55.71;101524.63;5004853;28;45561;-65
2022/11/30 09:55:08;;;;;;;;;11.25;11.25;;;;;21.07;55.88;101533.41;5020935;28;45335;-66
2022/11/30 09:57:41;;;;;;;;;15.75;12.25;;;;;21.09;55.78;101520.09;4987452;28;48250;-65
2022/11/30 10:00:25;;;;;;;;;13.50;11.25;;;;;21.11;56.12;101518.28;5020914;28;45445;-67
2022/11/30 10:02:51;;;;;;;;;16.00;13.25;;;;;21.13;55.75;101522.66;5004389;28;45504;-65
2022/11/30 10:05:27;;;;;;;;;13.00;11.25;;;;;21.14;56.21;101529.72;5020074;28;45493;-68
2022/11/30 10:08:11;;;;;;;;;14.25;12.00;;;;;21.15;56.03;101520.84;5008934;28;47537;-66
2022/11/30 10:10:39;;;;;;;;;14.50;14.25;;;;;21.16;55.60;101527.03;5020108;28;46073;-67
2022/11/30 10:13:27;;;;;;;;;16.25;14.50;;;;;21.16;55.52;101524.38;5020215;28;45448;-67
2022/11/30 10:16:22;;;;;;;;;16.25;13.50;;;;;21.16;55.63;101521.72;5020700;28;45319;-66
2022/11/30 10:19:20;;;;;;;;;15.00;12.50;;;;;21.17;56.08;101523.47;5013298;28;46026;-67
2022/11/30 10:22:12;;;;;;;;;16.50;15.75;;;;;21.17;55.95;101519.03;5030066;28;45512;-68
2022/11/30 10:24:59;;;;;;;;;16.25;15.00;;;;;21.20;55.47;101522.50;5008575;28;45299;-67
2022/11/30 10:27:41;;;;;;;;;14.75;13.50;;;;;21.19;55.40;101524.28;5020579;28;45658;-68
2022/11/30 10:30:18;;;;;;;;;17.25;16.25;;;;;21.18;55.34;101512.81;5003980;28;47879;-68
2022/11/30 10:32:45;;;;;;;;;19.75;14.50;;;;;21.19;55.40;101516.31;5008983;28;45248;-67
2022/11/30 10:35:28;;;;;;;;;10.75;10.75;;;;;21.17;55.42;101519.03;5003935;28;45363;-68
2022/11/30 10:37:54;;;;;;;;;14.00;13.25;;;;;21.18;55.16;101517.25;5021819;28;45241;-68
2022/11/30 10:40:19;;;;;;;;;20.25;14.25;;;;;21.16;55.29;101517.28;5020670;28;74068;-67
2022/11/30 10:43:25;;;;;;;;;13.75;11.25;;;;;21.18;55.49;101519.91;5022037;28;45392;-67
2022/11/30 10:45:51;;;;;;;;;16.75;12.25;;;;;21.17;55.41;101515.50;5024170;28;45197;-68
2022/11/30 10:48:42;;;;;;;;;17.25;14.25;;;;;21.16;54.66;101516.41;5021102;28;45272;-67
2022/11/30 10:51:07;;;;;;;;;20.00;15.75;;;;;21.13;54.41;101503.22;5019456;28;47833;-69
2022/11/30 10:53:33;;;;;;;;;21.50;16.00;;;;;21.09;54.16;101498.88;5018604;28;45281;-67
2022/11/30 10:56:12;;;;;;;;;46.00;35.75;;;;;21.07;54.75;101498.03;5020781;28;45356;-68
2022/11/30 10:58:58;;;;;;;;;51.75;37.25;;;;;21.05;53.95;101494.53;5011690;28;46505;-68
2022/11/30 11:01:36;;;;;;;;;44.00;37.50;;;;;21.04;54.54;101488.38;5019159;28;45351;-69
2022/11/30 11:04:21;;;;;;;;;50.25;37.25;;;;;21.02;54.02;101492.81;5020569;28;45444;-68
2022/11/30 11:07:08;;;;;;;;;43.25;34.50;;;;;21.01;54.04;101496.38;5020232;28;45588;-68
2022/11/30 11:09:40;;;;;;;;;45.50;37.00;;;;;21.00;54.08;101486.66;5012917;28;45220;-67
2022/11/30 11:12:14;;;;;;;;;46.00;35.25;;;;;20.99;53.92;101492.00;5019514;28;47748;-69
2022/11/30 11:14:39;;;;;;;;;43.25;36.00;;;;;21.00;54.11;101489.31;5002897;28;45426;-67
2022/11/30 11:17:25;;;;;;;;;44.00;35.50;;;;;21.02;54.86;101491.94;5002269;28;65550;-68
2022/11/30 11:19:50;;;;;;;;;41.75;34.25;;;;;21.04;54.64;101490.16;5019213;28;45343;-67
2022/11/30 11:22:20;;;;;;;;;43.00;35.25;;;;;21.07;54.49;101492.72;5020421;28;46350;-67